createdAt,value
2022-12-16T00:00:15.013Z,26.93
2022-12-16T00:02:42.844Z,27.00
2022-12-16T00:05:09.806Z,28.27
2022-12-16T00:07:36.543Z,27.87
2022-12-16T00:10:05.284Z,28.47
2022-12-16T00:12:32.075Z,26.03
2022-12-16T00:14:59.022Z,26.63
2022-12-16T00:17:25.852Z,27.07
2022-12-16T00:19:52.654Z,27.30
2022-12-16T00:22:19.379Z,27.07
2022-12-16T00:24:49.467Z,24.80
2022-12-16T00:27:17.459Z,26.37
2022-12-16T00:29:44.853Z,26.97
2022-12-16T00:32:13.986Z,26.20
2022-12-16T00:34:40.775Z,26.83
2022-12-16T00:37:07.558Z,27.03
2022-12-16T00:39:34.252Z,26.63
2022-12-16T00:42:00.938Z,26.27
2022-12-16T00:44:28.062Z,26.50
2022-12-16T00:46:55.079Z,27.20
2022-12-16T00:49:21.853Z,26.70
2022-12-16T00:51:49.652Z,26.37
2022-12-16T00:54:19.874Z,27.60
2022-12-16T00:56:46.706Z,26.40
2022-12-16T00:59:15.086Z,27.30
2022-12-16T01:01:41.987Z,27.47
2022-12-16T01:04:08.969Z,28.07
2022-12-16T01:06:35.824Z,27.37
2022-12-16T01:09:02.512Z,26.07
2022-12-16T01:11:29.279Z,25.40
2022-12-16T01:13:56.334Z,26.27
2022-12-16T01:16:23.102Z,26.00
2022-12-16T01:18:49.919Z,28.60
2022-12-16T01:21:19.513Z,26.77
2022-12-16T01:23:48.045Z,27.00
2022-12-16T01:26:18.018Z,27.20
2022-12-16T01:28:47.713Z,27.27
2022-12-16T01:31:17.203Z,27.13
2022-12-16T01:33:47.089Z,28.77
2022-12-16T01:36:13.851Z,27.33
2022-12-16T01:38:42.925Z,27.37
2022-12-16T01:41:10.502Z,27.23
2022-12-16T01:43:39.126Z,27.70
2022-12-16T01:46:09.132Z,27.70
2022-12-16T01:48:41.821Z,27.50
2022-12-16T01:51:16.014Z,26.77
2022-12-16T01:53:44.729Z,25.53
2022-12-16T01:56:16.214Z,27.03
2022-12-16T01:58:44.055Z,26.30
2022-12-16T02:01:11.133Z,26.60
2022-12-16T02:03:39.857Z,27.20
2022-12-16T02:06:07.417Z,25.93
2022-12-16T02:08:37.539Z,27.07
2022-12-16T02:11:22.997Z,27.47
2022-12-16T02:14:21.040Z,26.53
2022-12-16T02:17:27.331Z,26.87
2022-12-16T02:20:19.044Z,25.87
2022-12-16T02:23:10.901Z,27.30
2022-12-16T02:26:04.860Z,25.80
2022-12-16T02:28:58.778Z,25.90
2022-12-16T02:31:41.811Z,25.93
2022-12-16T02:34:41.678Z,26.43
2022-12-16T02:37:36.217Z,27.07
2022-12-16T02:40:37.528Z,27.00
2022-12-16T02:43:11.217Z,28.10
2022-12-16T02:45:38.872Z,27.50
2022-12-16T02:48:08.226Z,26.73
2022-12-16T02:50:45.217Z,26.77
2022-12-16T02:53:12.992Z,26.40
2022-12-16T02:55:48.725Z,28.43
2022-12-16T02:58:38.527Z,28.43
2022-12-16T03:02:00.004Z,25.33
2022-12-16T03:04:49.583Z,25.80
2022-12-16T03:07:18.683Z,26.60
2022-12-16T03:09:47.302Z,28.33
2022-12-16T03:12:16.692Z,27.03
2022-12-16T03:14:46.600Z,28.37
2022-12-16T03:17:15.694Z,28.20
2022-12-16T03:19:47.546Z,27.37
2022-12-16T03:22:29.479Z,27.27
2022-12-16T03:24:56.677Z,26.93
2022-12-16T03:27:46.229Z,29.83
2022-12-16T03:30:35.202Z,27.93
2022-12-16T03:33:27.887Z,27.63
2022-12-16T03:36:02.401Z,28.20
2022-12-16T03:38:30.831Z,27.13
2022-12-16T03:40:59.895Z,26.80
2022-12-16T03:43:27.335Z,25.63
2022-12-16T03:45:58.122Z,27.47
2022-12-16T03:48:26.389Z,27.67
2022-12-16T03:50:56.495Z,26.10
2022-12-16T03:53:26.421Z,28.37
2022-12-16T03:55:54.549Z,29.70
2022-12-16T03:58:21.816Z,27.43
2022-12-16T04:00:48.763Z,28.43
2022-12-16T04:03:15.709Z,27.23
2022-12-16T04:05:42.578Z,25.70
2022-12-16T04:08:09.340Z,28.13
2022-12-16T04:10:54.652Z,28.10
2022-12-16T04:13:40.286Z,26.83
2022-12-16T04:16:33.121Z,26.37
2022-12-16T04:19:19.229Z,26.17
2022-12-16T04:22:18.450Z,27.30
2022-12-16T04:24:45.246Z,26.53
2022-12-16T04:27:27.880Z,27.57
2022-12-16T04:30:15.698Z,28.60
2022-12-16T04:33:01.139Z,26.43
2022-12-16T04:35:46.642Z,28.30
2022-12-16T04:38:32.149Z,29.17
2022-12-16T04:41:17.698Z,26.27
2022-12-16T04:44:03.209Z,26.50
2022-12-16T04:46:48.829Z,26.50
2022-12-16T04:49:34.443Z,25.80
2022-12-16T04:52:19.899Z,25.07
2022-12-16T04:55:16.286Z,26.60
2022-12-16T04:58:07.446Z,26.00
2022-12-16T05:00:52.916Z,25.93
2022-12-16T05:03:38.073Z,25.20
2022-12-16T05:06:24.021Z,24.97
2022-12-16T05:09:09.478Z,23.50
2022-12-16T05:11:55.171Z,24.67
2022-12-16T05:14:42.699Z,25.50
2022-12-16T05:17:28.399Z,23.40
2022-12-16T05:20:13.921Z,22.40
2022-12-16T05:22:59.560Z,22.67
2022-12-16T05:25:45.131Z,23.77
2022-12-16T05:28:30.576Z,21.87
2022-12-16T05:31:16.020Z,22.17
2022-12-16T05:34:04.368Z,22.23
2022-12-16T05:36:49.702Z,23.53
2022-12-16T05:39:34.833Z,22.40
2022-12-16T05:42:20.248Z,21.33
2022-12-16T05:45:05.278Z,21.90
2022-12-16T05:47:50.698Z,22.10
2022-12-16T05:50:36.129Z,20.50
2022-12-16T05:53:24.318Z,22.07
2022-12-16T05:56:10.106Z,20.47
2022-12-16T05:58:55.344Z,20.50
2022-12-16T06:01:41.025Z,20.67
2022-12-16T06:04:26.701Z,20.83
2022-12-16T06:07:12.640Z,21.07
2022-12-16T06:09:58.078Z,20.13
2022-12-16T06:12:43.304Z,19.20
2022-12-16T06:15:29.263Z,19.90
2022-12-16T06:18:15.045Z,19.40
2022-12-16T06:21:00.329Z,20.47
2022-12-16T06:23:45.869Z,19.53
2022-12-16T06:26:31.442Z,18.53
2022-12-16T06:29:16.949Z,20.63
2022-12-16T06:32:02.298Z,19.80
2022-12-16T06:34:47.661Z,18.80
2022-12-16T06:37:33.051Z,18.07
2022-12-16T06:40:18.286Z,18.43
2022-12-16T06:43:03.617Z,18.50
2022-12-16T06:45:49.323Z,19.80
2022-12-16T06:48:34.691Z,18.73
2022-12-16T06:51:23.469Z,18.77
2022-12-16T06:54:09.183Z,18.97
2022-12-16T06:56:54.657Z,18.70
2022-12-16T06:59:40.153Z,17.93
2022-12-16T07:02:29.790Z,17.73
2022-12-16T07:05:15.391Z,18.67
2022-12-16T07:08:08.816Z,19.43
2022-12-16T07:10:55.293Z,18.23
2022-12-16T07:13:42.314Z,17.27
2022-12-16T07:16:27.619Z,19.07
2022-12-16T07:19:13.840Z,18.13
2022-12-16T07:21:59.098Z,18.17
2022-12-16T07:24:47.442Z,18.83
2022-12-16T07:27:32.911Z,18.87
2022-12-16T07:30:18.422Z,18.63
2022-12-16T07:33:03.816Z,18.43
2022-12-16T07:35:49.471Z,19.63
2022-12-16T07:38:34.852Z,19.67
2022-12-16T07:41:19.979Z,18.53
2022-12-16T07:44:05.456Z,19.47
2022-12-16T07:46:50.785Z,17.80
2022-12-16T07:49:39.675Z,18.63
2022-12-16T07:52:25.268Z,18.83
2022-12-16T07:55:10.762Z,17.93
2022-12-16T07:57:57.729Z,17.07
2022-12-16T08:00:56.728Z,18.10
2022-12-16T08:03:45.217Z,17.87
2022-12-16T08:06:30.692Z,18.80
2022-12-16T08:09:16.413Z,19.10
2022-12-16T08:12:01.796Z,18.47
2022-12-16T08:14:47.503Z,18.53
2022-12-16T08:17:32.739Z,20.10
2022-12-16T08:20:18.396Z,19.77
2022-12-16T08:23:03.616Z,18.70
2022-12-16T08:25:49.388Z,19.93
2022-12-16T08:28:34.771Z,20.43
2022-12-16T08:31:20.292Z,18.70
2022-12-16T08:34:05.881Z,19.10
2022-12-16T08:36:51.586Z,19.60
2022-12-16T08:39:37.178Z,19.00
2022-12-16T08:42:24.932Z,20.20
2022-12-16T08:45:10.345Z,17.10
2022-12-16T08:47:55.856Z,17.53
2022-12-16T08:50:41.653Z,17.37
2022-12-16T08:53:28.179Z,15.47
2022-12-16T08:56:13.692Z,14.27
2022-12-16T08:58:59.320Z,15.37
2022-12-16T09:01:44.817Z,15.50
2022-12-16T09:04:30.176Z,13.97
2022-12-16T09:07:15.806Z,13.67
2022-12-16T09:10:01.124Z,13.00
2022-12-16T09:12:46.833Z,12.93
2022-12-16T09:15:32.234Z,13.93
2022-12-16T09:18:17.694Z,12.57
2022-12-16T09:21:03.576Z,13.63
2022-12-16T09:23:49.101Z,14.77
2022-12-16T09:26:36.227Z,14.63
2022-12-16T09:29:21.760Z,16.13
2022-12-16T09:32:07.185Z,15.50
2022-12-16T09:34:52.578Z,15.07
2022-12-16T09:37:39.772Z,14.87
2022-12-16T09:40:25.504Z,13.80
2022-12-16T09:43:46.311Z,13.57
2022-12-16T09:46:59.199Z,13.40
2022-12-16T09:50:06.749Z,13.07
2022-12-16T09:52:59.396Z,11.23
2022-12-16T09:56:13.909Z,12.07
2022-12-16T09:59:04.026Z,11.07
2022-12-16T10:01:55.388Z,11.07
2022-12-16T10:04:43.099Z,9.20
2022-12-16T10:07:36.412Z,10.03
2022-12-16T10:10:26.219Z,9.10
2022-12-16T10:13:34.378Z,8.90
2022-12-16T10:16:32.828Z,8.80
2022-12-16T10:19:57.255Z,7.90
2022-12-16T10:22:50.992Z,9.13
2022-12-16T10:25:41.514Z,7.17
2022-12-16T10:29:02.346Z,8.07
2022-12-16T10:31:48.581Z,8.23
2022-12-16T10:34:43.106Z,7.17
2022-12-16T10:37:53.476Z,6.97
2022-12-16T10:40:43.702Z,6.30
2022-12-16T10:43:49.698Z,6.43
2022-12-16T10:46:41.636Z,6.87
2022-12-16T10:49:33.908Z,7.17
2022-12-16T10:52:22.411Z,6.10
2022-12-16T10:55:40.938Z,5.97
2022-12-16T10:58:44.309Z,5.47
2022-12-16T11:01:46.829Z,5.73
2022-12-16T11:04:48.587Z,4.97
2022-12-16T11:07:53.835Z,6.30
2022-12-16T11:10:45.290Z,5.20
2022-12-16T11:13:39.064Z,5.50
2022-12-16T11:16:35.389Z,5.77
2022-12-16T11:19:21.609Z,4.83
2022-12-16T11:22:08.320Z,5.00
2022-12-16T11:24:54.425Z,4.73
2022-12-16T11:27:39.824Z,5.23
2022-12-16T11:30:39.749Z,5.23
2022-12-16T11:33:47.711Z,4.80
2022-12-16T11:36:41.260Z,4.57
2022-12-16T11:39:32.463Z,3.90
2022-12-16T11:42:18.648Z,4.40
2022-12-16T11:45:14.010Z,4.80
2022-12-16T11:48:07.803Z,5.03
2022-12-16T11:50:59.551Z,5.10
2022-12-16T11:53:51.421Z,5.47
2022-12-16T11:56:54.662Z,5.30
2022-12-16T11:59:43.924Z,4.73
2022-12-16T12:02:42.041Z,5.13
2022-12-16T12:05:31.785Z,4.73
2022-12-16T12:08:28.292Z,5.17
2022-12-16T12:11:28.666Z,5.53
2022-12-16T12:14:36.593Z,6.13
2022-12-16T12:17:52.912Z,6.40
2022-12-16T12:20:51.690Z,5.77
2022-12-16T12:24:17.861Z,5.90
2022-12-16T12:27:20.615Z,6.00
2022-12-16T12:30:28.704Z,6.73
2022-12-16T12:33:37.869Z,7.77
2022-12-16T12:36:55.590Z,7.57
2022-12-16T12:39:48.628Z,7.73
2022-12-16T12:43:09.298Z,8.53
2022-12-16T12:46:00.560Z,8.40
2022-12-16T12:49:26.872Z,10.07
2022-12-16T12:52:40.186Z,10.43
2022-12-16T12:55:41.985Z,11.57
2022-12-16T12:58:31.077Z,11.03
2022-12-16T13:01:19.118Z,11.10
2022-12-16T13:04:15.344Z,11.23
2022-12-16T13:07:01.000Z,10.40
2022-12-16T13:09:54.819Z,11.70
2022-12-16T13:12:51.406Z,10.93
2022-12-16T13:15:58.309Z,11.63
2022-12-16T13:18:51.069Z,10.70
2022-12-16T13:21:56.137Z,10.13
2022-12-16T13:24:44.239Z,10.97
2022-12-16T13:27:34.138Z,11.30
2022-12-16T13:30:23.497Z,10.27
2022-12-16T13:33:34.698Z,12.17
2022-12-16T13:36:20.626Z,10.90
2022-12-16T13:39:08.730Z,10.87
2022-12-16T13:41:53.912Z,11.37
2022-12-16T13:45:01.190Z,11.10
2022-12-16T13:48:00.095Z,10.60
2022-12-16T13:51:06.447Z,10.23
2022-12-16T13:54:07.818Z,9.97
2022-12-16T13:57:07.412Z,10.10
2022-12-16T14:00:04.116Z,10.70
2022-12-16T14:02:57.079Z,10.53
2022-12-16T14:05:46.463Z,10.80
2022-12-16T14:08:36.497Z,10.00
2022-12-16T14:11:24.909Z,11.00
2022-12-16T14:14:13.238Z,10.57
2022-12-16T14:17:15.001Z,10.60
2022-12-16T14:20:26.518Z,10.40
2022-12-16T14:23:56.326Z,9.70
2022-12-16T14:26:42.885Z,10.47
2022-12-16T14:29:40.952Z,10.13
2022-12-16T14:32:47.455Z,10.37
2022-12-16T14:35:45.246Z,11.03
2022-12-16T14:38:46.886Z,10.37
2022-12-16T14:41:39.514Z,11.17
2022-12-16T14:44:39.047Z,11.20
2022-12-16T14:47:25.249Z,11.77
2022-12-16T14:50:12.985Z,11.63
2022-12-16T14:52:58.561Z,11.27
2022-12-16T14:55:50.992Z,12.57
2022-12-16T14:58:43.324Z,12.63
2022-12-16T15:01:37.494Z,12.70
2022-12-16T15:04:27.738Z,13.27
2022-12-16T15:07:17.875Z,13.13
2022-12-16T15:10:10.184Z,13.07
2022-12-16T15:12:58.814Z,14.57
2022-12-16T15:15:52.871Z,12.57
2022-12-16T15:18:47.387Z,13.70
2022-12-16T15:21:32.867Z,14.20
2022-12-16T15:24:21.603Z,13.03
2022-12-16T15:27:07.505Z,12.93
2022-12-16T15:29:55.278Z,13.63
2022-12-16T15:32:43.378Z,12.97
2022-12-16T15:35:52.705Z,12.80
2022-12-16T15:38:48.549Z,13.03
2022-12-16T15:41:45.375Z,13.57
2022-12-16T15:44:39.972Z,12.97
2022-12-16T15:47:51.361Z,14.20
2022-12-16T15:50:40.697Z,13.13
2022-12-16T15:54:11.563Z,14.37
2022-12-16T15:57:02.652Z,12.77
2022-12-16T15:59:50.828Z,13.40
2022-12-16T16:02:43.120Z,14.47
2022-12-16T16:05:49.235Z,13.37
2022-12-16T16:08:35.150Z,14.00
2022-12-16T16:11:20.498Z,14.43
2022-12-16T16:14:12.282Z,14.80
2022-12-16T16:16:59.681Z,14.63
2022-12-16T16:19:46.361Z,15.00
2022-12-16T16:22:35.071Z,14.33
2022-12-16T16:25:20.890Z,15.73
2022-12-16T16:28:06.505Z,13.87
2022-12-16T16:30:52.110Z,15.77
2022-12-16T16:33:37.724Z,16.57
2022-12-16T16:36:33.164Z,15.43
2022-12-16T16:39:19.158Z,16.47
2022-12-16T16:42:04.390Z,16.63
2022-12-16T16:44:50.073Z,17.60
2022-12-16T16:47:36.650Z,16.47
2022-12-16T16:50:25.497Z,16.43
2022-12-16T16:53:11.193Z,16.47
2022-12-16T16:56:07.149Z,15.10
2022-12-16T16:58:53.340Z,14.83
2022-12-16T17:01:38.817Z,16.87
2022-12-16T17:04:24.329Z,17.53
2022-12-16T17:07:13.265Z,17.10
2022-12-16T17:09:58.436Z,17.07
2022-12-16T17:12:49.234Z,18.50
2022-12-16T17:15:40.628Z,19.57
2022-12-16T17:18:26.553Z,19.17
2022-12-16T17:21:12.863Z,17.93
2022-12-16T17:23:59.041Z,18.83
2022-12-16T17:26:47.505Z,18.07
2022-12-16T17:29:44.232Z,18.90
2022-12-16T17:32:30.647Z,18.67
2022-12-16T17:35:16.790Z,19.57
2022-12-16T17:38:02.384Z,19.83
2022-12-16T17:40:48.142Z,19.87
2022-12-16T17:43:34.061Z,20.17
2022-12-16T17:46:25.912Z,20.73
2022-12-16T17:49:12.952Z,18.17
2022-12-16T17:51:58.495Z,20.60
2022-12-16T17:54:44.261Z,18.20
2022-12-16T17:57:30.360Z,18.97
2022-12-16T18:00:16.077Z,19.57
2022-12-16T18:03:01.906Z,19.17
2022-12-16T18:05:50.048Z,18.60
2022-12-16T18:08:35.543Z,19.97
2022-12-16T18:11:23.344Z,20.13
2022-12-16T18:14:08.673Z,19.13
2022-12-16T18:16:54.244Z,19.90
2022-12-16T18:19:42.810Z,19.17
2022-12-16T18:22:28.433Z,19.87
2022-12-16T18:25:16.132Z,21.20
2022-12-16T18:28:01.330Z,22.20
2022-12-16T18:30:46.886Z,21.23
2022-12-16T18:33:32.880Z,21.50
2022-12-16T18:36:18.451Z,22.37
2022-12-16T18:39:03.844Z,21.87
2022-12-16T18:41:49.384Z,20.60
2022-12-16T18:44:34.887Z,20.73
2022-12-16T18:47:20.332Z,22.03
2022-12-16T18:50:06.261Z,20.47
2022-12-16T18:52:51.961Z,20.73
2022-12-16T18:55:37.483Z,21.10
2022-12-16T19:01:30.364Z,22.00
2022-12-16T19:04:16.846Z,19.40
2022-12-16T19:07:02.523Z,20.27
2022-12-16T19:09:48.187Z,21.07
2022-12-16T19:12:37.888Z,22.83
2022-12-16T19:15:23.365Z,23.67
2022-12-16T19:18:08.778Z,26.40
2022-12-16T19:20:54.518Z,26.97
2022-12-16T19:23:42.629Z,24.27
2022-12-16T19:26:28.547Z,20.43
2022-12-16T19:29:14.140Z,21.47
2022-12-16T19:31:59.540Z,23.63
2022-12-16T19:34:45.155Z,23.20
2022-12-16T19:37:30.454Z,21.53
2022-12-16T19:40:16.039Z,22.53
2022-12-16T19:43:01.369Z,23.27
2022-12-16T19:45:52.890Z,21.97
2022-12-16T19:48:41.749Z,22.83
2022-12-16T19:51:27.379Z,23.70
2022-12-16T19:54:12.828Z,23.10
2022-12-16T19:56:58.411Z,23.50
2022-12-16T19:59:43.615Z,24.97
2022-12-16T20:02:30.218Z,24.17
2022-12-16T20:05:16.060Z,24.37
2022-12-16T20:08:01.568Z,24.73
2022-12-16T20:10:46.965Z,24.57
2022-12-16T20:13:33.124Z,24.10
2022-12-16T20:16:22.709Z,22.77
2022-12-16T20:19:08.100Z,22.20
2022-12-16T20:21:56.155Z,22.67
2022-12-16T20:24:58.960Z,22.77
2022-12-16T20:27:44.247Z,24.07
2022-12-16T20:30:47.401Z,23.73
2022-12-16T20:33:34.922Z,23.93
2022-12-16T20:36:22.795Z,23.97
2022-12-16T20:39:08.059Z,25.20
2022-12-16T20:41:56.172Z,24.07
2022-12-16T20:44:42.024Z,24.53
2022-12-16T20:47:29.383Z,27.87
2022-12-16T20:50:14.959Z,29.37
2022-12-16T20:53:00.443Z,31.03
2022-12-16T20:55:45.792Z,29.17
2022-12-16T20:58:39.389Z,26.50
2022-12-16T21:01:25.123Z,26.07
2022-12-16T21:04:13.379Z,22.97
2022-12-16T21:06:58.887Z,23.47
2022-12-16T21:09:46.475Z,25.67
2022-12-16T21:12:32.006Z,24.63
2022-12-16T21:15:17.721Z,24.13
2022-12-16T21:18:02.912Z,24.47
2022-12-16T21:20:48.563Z,23.40
2022-12-16T21:23:33.672Z,22.30
2022-12-16T21:26:19.546Z,22.53
2022-12-16T21:29:05.632Z,23.80
2022-12-16T21:31:51.214Z,24.10
2022-12-16T21:34:39.046Z,23.93
2022-12-16T21:37:24.657Z,22.07
2022-12-16T21:40:10.383Z,23.87
2022-12-16T21:42:56.216Z,24.70
2022-12-16T21:45:41.974Z,22.80
2022-12-16T21:48:29.863Z,23.60
2022-12-16T21:51:15.567Z,23.07
2022-12-16T21:57:09.658Z,23.60
2022-12-16T21:59:56.364Z,23.37
2022-12-16T22:02:42.100Z,23.17
2022-12-16T22:05:29.462Z,22.63
2022-12-16T22:08:29.500Z,23.90
2022-12-16T22:11:15.046Z,23.13
2022-12-16T22:14:00.539Z,22.43
2022-12-16T22:16:46.240Z,22.60
2022-12-16T22:19:31.318Z,24.00
2022-12-16T22:22:16.851Z,24.00
2022-12-16T22:25:02.387Z,22.27
2022-12-16T22:27:47.591Z,22.90
2022-12-16T22:30:32.938Z,23.90
2022-12-16T22:33:18.467Z,25.03
2022-12-16T22:36:07.054Z,24.03
2022-12-16T22:38:52.556Z,23.17
2022-12-16T22:41:37.697Z,25.70
2022-12-16T22:44:23.372Z,26.87
2022-12-16T22:47:08.714Z,25.30
2022-12-16T22:49:56.066Z,28.47
2022-12-16T22:52:41.581Z,29.53
2022-12-16T22:55:27.279Z,28.53
2022-12-16T22:58:13.267Z,27.00
2022-12-16T23:00:58.796Z,26.93
2022-12-16T23:03:44.717Z,24.87
2022-12-16T23:06:30.538Z,25.93
2022-12-16T23:09:16.116Z,26.60
2022-12-16T23:12:03.573Z,26.63
2022-12-16T23:14:49.075Z,27.80
2022-12-16T23:17:34.660Z,26.50
2022-12-16T23:20:21.777Z,26.17
2022-12-16T23:23:08.145Z,26.90
2022-12-16T23:25:53.881Z,26.00
2022-12-16T23:28:39.463Z,27.53
2022-12-16T23:31:25.178Z,25.67
2022-12-16T23:32:31.314Z,23.60
2022-12-16T23:34:10.510Z,25.17
2022-12-16T23:36:55.884Z,25.93
2022-12-16T23:39:43.670Z,25.97
2022-12-16T23:42:29.071Z,26.90
2022-12-16T23:45:17.474Z,25.63
2022-12-16T23:48:02.708Z,26.50
2022-12-16T23:50:48.507Z,25.80
2022-12-16T23:53:40.331Z,24.97
2022-12-16T23:56:26.913Z,25.37
2022-12-16T23:59:12.511Z,23.57
